createdAt,value
2022-08-14T00:02:06.457Z,98142.59
2022-08-14T00:07:10.743Z,98137.31
2022-08-14T00:12:23.782Z,98142.84
2022-08-14T00:17:27.001Z,98144.66
2022-08-14T00:22:44.634Z,98138.19
2022-08-14T00:27:54.215Z,98128.81
2022-08-14T00:32:56.872Z,98123.13
2022-08-14T00:37:59.135Z,98127.78
2022-08-14T00:43:02.122Z,98122.56
2022-08-14T00:48:04.762Z,98116.38
2022-08-14T00:53:10.532Z,98118.53
2022-08-14T00:58:32.526Z,98115.47
2022-08-14T01:03:39.700Z,98111.97
2022-08-14T01:08:52.301Z,98109.19
2022-08-14T01:14:18.228Z,98114.88
2022-08-14T01:19:43.703Z,98110.31
2022-08-14T01:24:45.986Z,98107.53
2022-08-14T01:35:18.269Z,98105.41
2022-08-14T01:40:36.587Z,98110.63
2022-08-14T01:46:06.020Z,98104.69
2022-08-14T01:51:18.689Z,98112.69
2022-08-14T01:56:24.558Z,98107.19
2022-08-14T02:01:35.258Z,98097.00
2022-08-14T02:06:38.900Z,98103.16
2022-08-14T02:11:41.192Z,98111.22
2022-08-14T02:16:47.949Z,98101.06
2022-08-14T02:21:54.749Z,98086.69
2022-08-14T02:28:23.039Z,98081.00
2022-08-14T02:32:30.329Z,98088.56
2022-08-14T02:37:47.443Z,98087.88
2022-08-14T02:42:54.688Z,98081.53
2022-08-14T02:48:10.540Z,98071.84
2022-08-14T02:53:31.251Z,98066.19
2022-08-14T02:58:38.728Z,98066.13
2022-08-14T03:03:46.344Z,98078.16
2022-08-14T03:08:48.525Z,98080.84
2022-08-14T03:13:52.192Z,98065.69
2022-08-14T03:18:59.857Z,98066.81
2022-08-14T03:24:07.844Z,98076.97
2022-08-14T03:29:26.149Z,98069.84
2022-08-14T03:34:48.487Z,98066.66
2022-08-14T03:39:50.889Z,98065.13
2022-08-14T03:45:19.881Z,98067.66
2022-08-14T03:50:14.992Z,98062.31
2022-08-14T03:55:30.687Z,98049.88
2022-08-14T04:00:42.920Z,98046.75
2022-08-14T04:05:48.490Z,98047.25
2022-08-14T04:10:51.014Z,98052.06
2022-08-14T04:16:02.089Z,98056.94
2022-08-14T04:21:08.077Z,98051.66
2022-08-14T04:26:14.401Z,98056.94
2022-08-14T04:32:56.273Z,98052.56
2022-08-14T04:37:01.038Z,98052.22
2022-08-14T04:42:47.582Z,98060.09
2022-08-14T04:48:12.672Z,98051.66
2022-08-14T04:53:17.491Z,98050.78
2022-08-14T04:58:32.659Z,98042.94
2022-08-14T05:03:37.822Z,98038.38
2022-08-14T05:08:56.951Z,98029.28
2022-08-14T05:14:34.338Z,98038.75
2022-08-14T05:19:29.352Z,98018.78
2022-08-14T05:24:31.703Z,98027.41
2022-08-14T05:29:34.894Z,98024.63
2022-08-14T05:34:36.937Z,98030.03
2022-08-14T05:39:40.774Z,98024.03
2022-08-14T05:44:42.860Z,98025.00
2022-08-14T05:49:48.661Z,98022.19
2022-08-14T05:54:50.589Z,98020.25
2022-08-14T05:59:52.484Z,98026.91
2022-08-14T06:04:55.198Z,98029.56
2022-08-14T06:10:04.003Z,98026.69
2022-08-14T06:15:08.416Z,98012.41
2022-08-14T06:20:12.490Z,98006.03
2022-08-14T06:25:16.213Z,97996.69
2022-08-14T06:30:24.140Z,97991.09
2022-08-14T06:35:32.402Z,97996.22
2022-08-14T06:40:37.119Z,97985.88
2022-08-14T06:45:43.687Z,97974.75
2022-08-14T06:50:53.954Z,97961.72
2022-08-14T06:56:00.822Z,97969.97
2022-08-14T07:01:27.829Z,97973.56
2022-08-14T07:06:46.273Z,97964.47
2022-08-14T07:11:48.794Z,97971.09
2022-08-14T07:16:50.667Z,97962.75
2022-08-14T07:21:52.624Z,97956.88
2022-08-14T07:26:54.636Z,97961.28
2022-08-14T07:31:56.657Z,97955.16
2022-08-14T07:37:00.861Z,97960.63
2022-08-14T07:42:03.185Z,97947.19
2022-08-14T07:47:05.409Z,97941.66
2022-08-14T07:52:08.232Z,97934.91
2022-08-14T07:57:12.626Z,97938.84
2022-08-14T08:02:18.741Z,97924.63
2022-08-14T08:07:22.902Z,97925.97
2022-08-14T08:12:30.234Z,97916.38
2022-08-14T08:17:42.706Z,97929.41
2022-08-14T08:23:00.489Z,97927.59
2022-08-14T08:28:22.200Z,97928.44
2022-08-14T08:33:31.832Z,97933.34
2022-08-14T08:39:15.583Z,97939.09
2022-08-14T08:44:05.380Z,97922.38
2022-08-14T08:49:07.635Z,97925.84
2022-08-14T08:54:19.611Z,97909.84
2022-08-14T08:59:31.703Z,97921.03
2022-08-14T09:04:45.640Z,97916.63
2022-08-14T09:09:59.997Z,97903.25
2022-08-14T09:15:12.077Z,97903.72
2022-08-14T09:20:26.015Z,97902.94
2022-08-14T09:25:58.971Z,97896.63
2022-08-14T09:30:57.780Z,97886.09
2022-08-14T09:36:21.803Z,97870.50
2022-08-14T09:42:20.473Z,97870.88
2022-08-14T09:47:19.424Z,97864.34
2022-08-14T09:52:34.059Z,97850.81
2022-08-14T09:57:36.435Z,97852.09
2022-08-14T10:02:45.712Z,97847.81
2022-08-14T10:07:53.404Z,97829.56
2022-08-14T10:13:01.062Z,97825.84
2022-08-14T10:18:13.350Z,97807.28
2022-08-14T10:23:23.010Z,97808.03
2022-08-14T10:29:03.891Z,97801.06
2022-08-14T10:34:13.014Z,97789.06
2022-08-14T10:39:19.331Z,97777.50
2022-08-14T10:44:25.045Z,97771.22
2022-08-14T10:49:31.902Z,97778.63
2022-08-14T10:54:43.063Z,97769.50
2022-08-14T10:59:57.923Z,97751.19
2022-08-14T11:05:11.508Z,97753.22
2022-08-14T11:10:15.084Z,97756.28
2022-08-14T11:15:22.930Z,97750.44
2022-08-14T11:20:27.430Z,97749.69
2022-08-14T11:25:41.349Z,97747.63
2022-08-14T11:30:53.397Z,97743.56
2022-08-14T11:35:59.527Z,97756.28
2022-08-14T11:41:02.250Z,97746.84
2022-08-14T11:46:06.491Z,97745.84
2022-08-14T11:51:23.899Z,97730.81
2022-08-14T11:56:35.788Z,97733.84
2022-08-14T12:01:41.319Z,97730.25
2022-08-14T12:06:52.743Z,97716.53
2022-08-14T12:11:55.688Z,97727.44
2022-08-14T12:17:11.860Z,97718.97
2022-08-14T12:22:25.861Z,97727.09
2022-08-14T12:28:02.468Z,97720.44
2022-08-14T12:33:08.566Z,97710.22
2022-08-14T12:38:19.568Z,97714.66
2022-08-14T12:43:23.260Z,97717.94
2022-08-14T12:48:32.186Z,97713.56
2022-08-14T12:53:38.902Z,97689.72
2022-08-14T12:58:51.886Z,97689.78
2022-08-14T13:04:16.207Z,97685.84
2022-08-14T13:09:19.228Z,97679.44
2022-08-14T13:14:29.613Z,97667.94
2022-08-14T13:19:33.102Z,97658.84
2022-08-14T13:24:37.706Z,97661.06
2022-08-14T13:29:46.619Z,97642.06
2022-08-14T13:34:49.351Z,97624.09
2022-08-14T13:39:56.699Z,97616.78
2022-08-14T13:45:02.478Z,97603.28
2022-08-14T13:50:11.609Z,97592.31
2022-08-14T13:55:16.290Z,97590.78
2022-08-14T14:00:21.628Z,97579.75
2022-08-14T14:05:52.915Z,97576.94
2022-08-14T14:10:56.152Z,97562.91
2022-08-14T14:16:03.814Z,97563.16
2022-08-14T14:21:06.549Z,97553.44
2022-08-14T14:26:19.973Z,97543.78
2022-08-14T14:31:30.200Z,97535.66
2022-08-14T14:36:32.920Z,97547.72
2022-08-14T14:41:43.511Z,97538.34
2022-08-14T14:46:50.300Z,97553.63
2022-08-14T14:51:52.666Z,97546.78
2022-08-14T14:56:56.640Z,97539.94
2022-08-14T15:02:02.417Z,97524.38
2022-08-14T15:07:07.144Z,97540.41
2022-08-14T15:12:34.710Z,97531.50
2022-08-14T15:17:41.495Z,97523.59
2022-08-14T15:22:51.379Z,97521.09
2022-08-14T15:27:54.535Z,97521.06
2022-08-14T15:32:57.498Z,97517.75
2022-08-14T15:38:08.344Z,97504.28
2022-08-14T15:43:12.778Z,97503.78
2022-08-14T15:48:22.187Z,97508.59
2022-08-14T15:53:25.122Z,97503.25
2022-08-14T15:58:33.461Z,97508.09
2022-08-14T16:03:39.971Z,97486.22
2022-08-14T16:08:46.799Z,97483.44
2022-08-14T16:13:52.498Z,97493.59
2022-08-14T16:18:59.704Z,97496.66
2022-08-14T16:24:03.344Z,97496.66
2022-08-14T16:29:07.682Z,97482.41
2022-08-14T16:34:45.509Z,97487.00
2022-08-14T16:39:37.708Z,97471.72
2022-08-14T16:44:41.205Z,97459.53
2022-08-14T16:50:05.077Z,97465.34
2022-08-14T16:55:09.584Z,97452.91
2022-08-14T17:00:29.939Z,97454.44
2022-08-14T17:05:41.777Z,97441.47
2022-08-14T17:10:48.198Z,97454.19
2022-08-14T17:16:25.425Z,97451.38
2022-08-14T17:21:38.432Z,97442.75
2022-08-14T17:26:44.959Z,97442.72
2022-08-14T17:31:58.059Z,97443.69
2022-08-14T17:37:02.717Z,97457.88
2022-08-14T17:42:13.498Z,97457.59
2022-08-14T17:47:18.059Z,97452.94
2022-08-14T17:52:35.861Z,97431.22
2022-08-14T17:57:42.962Z,97429.31
2022-08-14T18:02:51.334Z,97454.25
2022-08-14T18:07:59.717Z,97439.19
2022-08-14T18:13:16.685Z,97448.03
2022-08-14T18:18:19.669Z,97436.88
2022-08-14T18:23:22.005Z,97437.88
2022-08-14T18:28:48.105Z,97427.31
2022-08-14T18:34:30.960Z,97435.28
2022-08-14T18:40:02.062Z,97432.78
2022-08-14T18:45:01.032Z,97445.06
2022-08-14T18:50:27.025Z,97443.78
2022-08-14T18:55:36.689Z,97456.88
2022-08-14T19:00:58.837Z,97445.63
2022-08-14T19:06:07.386Z,97438.31
2022-08-14T19:11:34.523Z,97438.09
2022-08-14T19:16:43.028Z,97449.47
2022-08-14T19:21:57.886Z,97445.59
2022-08-14T19:27:16.471Z,97453.31
2022-08-14T19:32:39.679Z,97447.84
2022-08-14T19:37:52.395Z,97447.47
2022-08-14T19:42:58.456Z,97451.69
2022-08-14T19:48:02.683Z,97447.28
2022-08-14T19:53:11.588Z,97443.72
2022-08-14T19:58:13.899Z,97461.88
2022-08-14T20:03:18.951Z,97458.97
2022-08-14T20:09:05.999Z,97457.25
2022-08-14T20:13:58.403Z,97444.78
2022-08-14T20:19:30.102Z,97450.16
2022-08-14T20:24:41.117Z,97451.22
2022-08-14T20:29:44.359Z,97443.94
2022-08-14T20:34:51.231Z,97452.63
2022-08-14T20:39:53.970Z,97456.94
2022-08-14T20:45:21.388Z,97445.59
2022-08-14T20:50:28.749Z,97451.88
2022-08-14T20:55:41.487Z,97452.31
2022-08-14T21:00:52.162Z,97449.75
2022-08-14T21:06:00.017Z,97443.88
2022-08-14T21:11:05.723Z,97428.94
2022-08-14T21:16:33.662Z,97424.31
2022-08-14T21:21:40.465Z,97429.47
2022-08-14T21:26:51.403Z,97419.47
2022-08-14T21:32:02.443Z,97419.06
2022-08-14T21:37:23.512Z,97414.78
2022-08-14T21:42:28.045Z,97422.34
2022-08-14T21:47:30.017Z,97419.94
2022-08-14T21:52:51.453Z,97404.06
2022-08-14T21:58:46.312Z,97419.97
2022-08-14T22:03:24.285Z,97406.78
2022-08-14T22:08:27.304Z,97397.88
2022-08-14T22:13:32.454Z,97404.78
2022-08-14T22:18:34.601Z,97398.78
2022-08-14T22:23:38.997Z,97402.03
2022-08-14T22:28:44.852Z,97393.25
2022-08-14T22:33:49.881Z,97391.44
2022-08-14T22:38:59.703Z,97391.28
2022-08-14T22:44:10.933Z,97390.19
2022-08-14T22:49:16.507Z,97388.97
2022-08-14T22:54:51.928Z,97397.25
2022-08-14T22:59:55.672Z,97393.59
2022-08-14T23:04:58.782Z,97392.97
2022-08-14T23:10:32.471Z,97386.66
2022-08-14T23:15:29.783Z,97379.38
2022-08-14T23:20:36.268Z,97383.19
2022-08-14T23:25:59.071Z,97362.03
2022-08-14T23:31:08.353Z,97357.41
2022-08-14T23:36:32.480Z,97367.38
2022-08-14T23:41:45.842Z,97371.03
2022-08-14T23:46:52.552Z,97362.28
2022-08-14T23:52:49.582Z,97358.00
2022-08-14T23:57:20.784Z,97358.00
